createdAt,value
2018-05-02T00:00:19.925Z,0.00
2018-05-02T00:01:19.833Z,0.00
2018-05-02T00:02:19.734Z,0.00
2018-05-02T00:03:19.637Z,0.00
2018-05-02T00:04:19.585Z,0.00
2018-05-02T00:05:19.446Z,0.00
2018-05-02T00:06:19.350Z,0.00
2018-05-02T00:07:19.256Z,0.00
2018-05-02T00:08:19.157Z,0.00
2018-05-02T00:09:19.092Z,0.00
2018-05-02T00:10:18.965Z,0.00
2018-05-02T00:11:18.927Z,0.00
2018-05-02T00:12:18.774Z,0.00
2018-05-02T00:13:18.683Z,0.00
2018-05-02T00:14:18.614Z,0.00
2018-05-02T00:15:18.483Z,0.00
2018-05-02T00:16:18.390Z,0.00
2018-05-02T00:17:18.295Z,0.00
2018-05-02T00:18:18.196Z,0.00
2018-05-02T00:19:18.132Z,0.00
2018-05-02T00:20:18.004Z,0.00
2018-05-02T00:21:17.988Z,0.00
2018-05-02T00:22:17.816Z,0.00
2018-05-02T00:23:17.730Z,0.00
2018-05-02T00:24:17.652Z,0.00
2018-05-02T00:25:17.522Z,0.00
2018-05-02T00:26:17.426Z,0.00
2018-05-02T00:27:17.333Z,0.00
2018-05-02T00:28:17.243Z,0.00
2018-05-02T00:29:17.171Z,0.00
2018-05-02T00:30:17.043Z,0.00
2018-05-02T00:31:16.949Z,0.00
2018-05-02T00:32:16.852Z,0.00
2018-05-02T00:33:16.771Z,0.00
2018-05-02T00:34:16.666Z,0.00
2018-05-02T00:35:16.594Z,0.00
2018-05-02T00:36:16.470Z,0.00
2018-05-02T00:37:16.379Z,0.00
2018-05-02T00:38:16.282Z,0.00
2018-05-02T00:39:16.186Z,0.00
2018-05-02T00:40:16.120Z,0.00
2018-05-02T00:41:15.991Z,0.00
2018-05-02T00:42:15.900Z,0.00
2018-05-02T00:43:15.802Z,0.00
2018-05-02T00:44:15.708Z,0.00
2018-05-02T00:45:15.643Z,0.00
2018-05-02T00:46:15.516Z,0.00
2018-05-02T00:47:15.420Z,0.00
2018-05-02T00:48:15.324Z,0.00
2018-05-02T00:49:15.229Z,0.00
2018-05-02T00:50:15.163Z,0.00
2018-05-02T00:51:15.041Z,0.00
2018-05-02T00:52:14.941Z,0.00
2018-05-02T00:53:14.847Z,0.00
2018-05-02T00:54:14.753Z,0.00
2018-05-02T00:55:14.685Z,0.00
2018-05-02T00:56:14.559Z,0.00
2018-05-02T00:57:14.465Z,0.00
2018-05-02T00:58:14.371Z,0.00
2018-05-02T00:59:14.276Z,0.00
2018-05-02T01:00:14.209Z,0.00
2018-05-02T01:01:14.087Z,0.00
2018-05-02T01:02:13.988Z,0.00
2018-05-02T01:03:13.911Z,0.00
2018-05-02T01:04:13.801Z,0.00
2018-05-02T01:05:13.735Z,0.00
2018-05-02T01:06:13.608Z,0.00
2018-05-02T01:07:13.514Z,0.00
2018-05-02T01:08:13.416Z,0.00
2018-05-02T01:09:13.324Z,0.00
2018-05-02T01:10:13.259Z,0.00
2018-05-02T01:11:13.131Z,0.00
2018-05-02T01:12:13.039Z,0.00
2018-05-02T01:13:12.956Z,0.00
2018-05-02T01:14:12.849Z,0.00
2018-05-02T01:15:12.781Z,0.00
2018-05-02T01:16:12.656Z,0.00
2018-05-02T01:17:12.561Z,0.00
2018-05-02T01:18:12.565Z,0.00
2018-05-02T01:19:12.374Z,0.00
2018-05-02T01:20:12.317Z,0.00
2018-05-02T01:21:12.183Z,0.00
2018-05-02T01:22:12.088Z,0.00
2018-05-02T01:23:12.004Z,0.00
2018-05-02T01:24:11.905Z,0.00
2018-05-02T01:25:11.936Z,0.00
2018-05-02T01:26:11.706Z,0.00
2018-05-02T01:27:11.613Z,0.00
2018-05-02T01:28:11.519Z,0.00
2018-05-02T01:29:11.423Z,0.00
2018-05-02T01:30:11.358Z,0.00
2018-05-02T01:31:11.233Z,0.00
2018-05-02T01:32:11.235Z,0.00
2018-05-02T01:33:11.043Z,0.00
2018-05-02T01:34:10.951Z,0.00
2018-05-02T01:35:10.886Z,0.00
2018-05-02T01:36:10.757Z,0.00
2018-05-02T01:37:10.661Z,0.00
2018-05-02T01:38:10.571Z,0.00
2018-05-02T01:39:10.568Z,0.00
2018-05-02T01:40:10.411Z,0.00
2018-05-02T01:41:10.290Z,0.00
2018-05-02T01:42:10.190Z,0.00
2018-05-02T01:43:10.096Z,0.00
2018-05-02T01:44:09.999Z,0.00
2018-05-02T01:45:09.936Z,0.00
2018-05-02T01:46:09.908Z,0.00
2018-05-02T01:47:09.716Z,0.00
2018-05-02T01:48:09.623Z,0.00
2018-05-02T01:49:09.526Z,0.00
2018-05-02T01:50:09.438Z,0.00
2018-05-02T01:51:09.373Z,0.00
2018-05-02T01:52:09.246Z,0.00
2018-05-02T01:53:09.260Z,0.00
2018-05-02T01:54:09.053Z,0.00
2018-05-02T01:55:08.957Z,0.00
2018-05-02T01:56:08.895Z,0.00
2018-05-02T01:57:08.769Z,0.00
2018-05-02T01:58:08.675Z,0.00
2018-05-02T01:59:08.584Z,0.00
2018-05-02T02:00:08.676Z,0.00
2018-05-02T02:01:08.394Z,0.00
2018-05-02T02:02:08.327Z,0.00
2018-05-02T02:03:08.215Z,0.00
2018-05-02T02:04:08.112Z,0.00
2018-05-02T02:05:08.014Z,0.00
2018-05-02T02:06:07.917Z,0.00
2018-05-02T02:07:07.958Z,0.00
2018-05-02T02:08:07.730Z,0.00
2018-05-02T02:09:07.633Z,0.00
2018-05-02T02:10:07.540Z,0.00
2018-05-02T02:11:07.444Z,0.00
2018-05-02T02:12:07.350Z,0.00
2018-05-02T02:13:07.292Z,0.00
2018-05-02T02:14:07.275Z,0.00
2018-05-02T02:15:07.065Z,0.00
2018-05-02T02:16:06.974Z,0.00
2018-05-02T02:17:06.879Z,0.00
2018-05-02T02:18:06.818Z,0.00
2018-05-02T02:19:06.688Z,0.00
2018-05-02T02:20:06.595Z,0.00
2018-05-02T02:21:06.596Z,0.00
2018-05-02T02:22:06.407Z,0.00
2018-05-02T02:23:06.344Z,0.00
2018-05-02T02:24:06.216Z,0.00
2018-05-02T02:25:06.123Z,0.00
2018-05-02T02:26:06.026Z,0.00
2018-05-02T02:27:05.932Z,0.00
2018-05-02T02:28:05.841Z,0.00
2018-05-02T02:29:05.774Z,0.00
2018-05-02T02:30:05.648Z,0.00
2018-05-02T02:31:05.555Z,0.00
2018-05-02T02:32:05.467Z,0.00
2018-05-02T02:33:05.363Z,0.00
2018-05-02T02:34:05.338Z,0.00
2018-05-02T02:35:05.273Z,0.00
2018-05-02T02:36:05.082Z,0.00
2018-05-02T02:37:04.984Z,0.00
2018-05-02T02:38:04.890Z,0.00
2018-05-02T02:39:04.797Z,0.00
2018-05-02T02:40:04.729Z,0.00
2018-05-02T02:41:04.604Z,0.00
2018-05-02T02:42:04.511Z,0.00
2018-05-02T02:43:04.415Z,0.00
2018-05-02T02:44:04.321Z,0.00
2018-05-02T02:45:04.258Z,0.00
2018-05-02T02:46:04.132Z,0.00
2018-05-02T02:47:04.036Z,0.00
2018-05-02T02:48:03.943Z,0.00
2018-05-02T02:49:03.845Z,0.00
2018-05-02T02:50:03.791Z,0.00
2018-05-02T02:51:03.657Z,0.00
2018-05-02T02:52:03.561Z,0.00
2018-05-02T02:53:03.467Z,0.00
2018-05-02T02:54:03.372Z,0.00
2018-05-02T02:55:03.291Z,0.00
2018-05-02T02:56:03.214Z,0.00
2018-05-02T02:57:03.090Z,0.00
2018-05-02T02:58:02.993Z,0.00
2018-05-02T02:59:02.899Z,0.00
2018-05-02T03:00:02.804Z,0.00
2018-05-02T03:01:02.743Z,0.00
2018-05-02T03:02:02.616Z,0.00
2018-05-02T03:03:02.518Z,0.00
2018-05-02T03:04:02.425Z,0.00
2018-05-02T03:05:02.328Z,0.00
2018-05-02T03:06:02.233Z,0.00
2018-05-02T03:07:02.175Z,0.00
2018-05-02T03:08:02.043Z,0.00
2018-05-02T03:09:01.948Z,0.00
2018-05-02T03:10:01.853Z,0.00
2018-05-02T03:11:01.759Z,0.00
2018-05-02T03:12:01.710Z,0.00
2018-05-02T03:13:01.585Z,0.00
2018-05-02T03:14:01.472Z,0.00
2018-05-02T03:15:01.381Z,0.00
2018-05-02T03:16:01.291Z,4.00
2018-05-02T03:17:01.225Z,4.00
2018-05-02T03:18:01.097Z,4.00
2018-05-02T03:19:00.999Z,4.00
2018-05-02T03:20:00.902Z,4.00
2018-05-02T03:21:00.811Z,4.00
2018-05-02T03:22:00.716Z,4.00
2018-05-02T03:23:00.650Z,8.00
2018-05-02T03:24:00.526Z,8.00
2018-05-02T03:25:00.431Z,8.00
2018-05-02T03:26:00.336Z,8.00
2018-05-02T03:27:00.254Z,12.00
2018-05-02T03:28:00.170Z,12.00
2018-05-02T03:29:00.047Z,16.00
2018-05-02T03:29:59.952Z,20.00
2018-05-02T03:30:59.858Z,24.00
2018-05-02T03:31:59.759Z,24.00
2018-05-02T03:32:59.710Z,20.00
2018-05-02T03:33:59.575Z,28.00
2018-05-02T03:34:59.479Z,28.00
2018-05-02T03:35:59.382Z,32.00
2018-05-02T03:36:59.287Z,36.00
2018-05-02T03:37:59.193Z,44.00
2018-05-02T03:38:59.124Z,52.00
2018-05-02T03:39:59.001Z,60.00
2018-05-02T03:40:58.905Z,72.00
2018-05-02T03:41:58.813Z,80.00
2018-05-02T03:42:58.715Z,96.00
2018-05-02T03:43:58.653Z,104.00
2018-05-02T03:44:58.524Z,116.00
2018-05-02T03:45:58.430Z,132.00
2018-05-02T03:46:58.333Z,144.00
2018-05-02T03:47:58.241Z,164.00
2018-05-02T03:48:58.190Z,180.00
2018-05-02T03:49:58.050Z,188.00
2018-05-02T03:50:57.952Z,196.00
2018-05-02T03:51:57.856Z,196.00
2018-05-02T03:52:57.848Z,200.00
2018-05-02T03:53:57.669Z,200.00
2018-05-02T03:54:57.601Z,192.00
2018-05-02T03:55:57.484Z,188.00
2018-05-02T03:56:57.380Z,184.00
2018-05-02T03:57:57.296Z,184.00
2018-05-02T03:58:57.284Z,192.00
2018-05-02T03:59:57.126Z,204.00
2018-05-02T04:00:57.000Z,216.00
2018-05-02T04:01:56.905Z,232.00
2018-05-02T04:02:56.810Z,248.00
2018-05-02T04:03:56.718Z,268.00
2018-05-02T04:04:56.623Z,276.00
2018-05-02T04:05:56.557Z,280.00
2018-05-02T04:06:56.433Z,284.00
2018-05-02T04:07:56.332Z,288.00
2018-05-02T04:08:56.242Z,288.00
2018-05-02T04:09:56.146Z,276.00
2018-05-02T04:10:56.088Z,260.00
2018-05-02T04:11:55.955Z,244.00
2018-05-02T04:12:55.969Z,236.00
2018-05-02T04:13:55.772Z,236.00
2018-05-02T04:14:55.672Z,256.00
2018-05-02T04:15:55.621Z,284.00
2018-05-02T04:16:55.479Z,324.00
2018-05-02T04:17:55.386Z,356.00
2018-05-02T04:18:55.291Z,380.00
2018-05-02T04:19:55.290Z,388.00
2018-05-02T04:20:55.099Z,392.00
2018-05-02T04:21:55.039Z,404.00
2018-05-02T04:22:54.910Z,420.00
2018-05-02T04:23:54.818Z,436.00
2018-05-02T04:24:54.722Z,460.00
2018-05-02T04:25:54.627Z,484.00
2018-05-02T04:26:54.670Z,516.00
2018-05-02T04:27:54.435Z,556.00
2018-05-02T04:28:54.342Z,596.00
2018-05-02T04:29:54.246Z,620.00
2018-05-02T04:30:54.151Z,636.00
2018-05-02T04:31:54.054Z,676.00
2018-05-02T04:32:54.000Z,744.00
2018-05-02T04:33:53.964Z,828.00
2018-05-02T04:34:53.768Z,900.00
2018-05-02T04:35:53.676Z,944.00
2018-05-02T04:36:53.581Z,944.00
2018-05-02T04:37:53.516Z,908.00
2018-05-02T04:38:53.388Z,912.00
2018-05-02T04:39:53.298Z,996.00
2018-05-02T04:40:53.292Z,1092.00
2018-05-02T04:41:53.109Z,1188.00
2018-05-02T04:42:53.046Z,1280.00
2018-05-02T04:43:52.919Z,1356.00
2018-05-02T04:44:52.821Z,1420.00
2018-05-02T04:45:52.727Z,1500.00
2018-05-02T04:46:52.633Z,1584.00
2018-05-02T04:47:52.649Z,1680.00
2018-05-02T04:48:52.472Z,1756.00
2018-05-02T04:49:52.349Z,1844.00
2018-05-02T04:50:52.252Z,1908.00
2018-05-02T04:51:52.172Z,1964.00
2018-05-02T04:52:52.064Z,1988.00
2018-05-02T04:53:52.000Z,1996.00
2018-05-02T04:54:51.969Z,1992.00
2018-05-02T04:55:51.779Z,1948.00
2018-05-02T04:56:51.682Z,1928.00
2018-05-02T04:57:51.590Z,1964.00
2018-05-02T04:58:51.524Z,2044.00
2018-05-02T04:59:51.399Z,2168.00
2018-05-02T05:00:51.304Z,2280.00
2018-05-02T05:01:51.327Z,2384.00
2018-05-02T05:02:51.117Z,2452.00
2018-05-02T05:03:51.053Z,2524.00
2018-05-02T05:04:50.926Z,2604.00
2018-05-02T05:05:50.833Z,2664.00
2018-05-02T05:06:50.734Z,2664.00
2018-05-02T05:07:50.640Z,2660.00
2018-05-02T05:08:50.675Z,2636.00
2018-05-02T05:09:50.452Z,2596.00
2018-05-02T05:10:50.357Z,2556.00
2018-05-02T05:11:50.262Z,2496.00
2018-05-02T05:12:50.168Z,2468.00
2018-05-02T05:13:50.101Z,2472.00
2018-05-02T05:14:49.979Z,2532.00
2018-05-02T05:15:49.983Z,2640.00
2018-05-02T05:16:49.792Z,2776.00
2018-05-02T05:17:49.696Z,2944.00
2018-05-02T05:18:49.632Z,3124.00
2018-05-02T05:19:49.506Z,3276.00
2018-05-02T05:20:49.415Z,3416.00
2018-05-02T05:21:49.318Z,3532.00
2018-05-02T05:22:49.335Z,3640.00
2018-05-02T05:23:49.162Z,3728.00
2018-05-02T05:24:49.037Z,3792.00
2018-05-02T05:25:48.944Z,3896.00
2018-05-02T05:26:48.849Z,4020.00
2018-05-02T05:27:48.755Z,4144.00
2018-05-02T05:28:48.780Z,4192.00
2018-05-02T05:29:48.563Z,4140.00
2018-05-02T05:30:48.469Z,3980.00
2018-05-02T05:31:48.376Z,3704.00
2018-05-02T05:32:48.282Z,3396.00
2018-05-02T05:33:48.221Z,3140.00
2018-05-02T05:34:48.093Z,2896.00
2018-05-02T05:35:47.998Z,2676.00
2018-05-02T05:36:47.906Z,2508.00
2018-05-02T05:37:47.810Z,2372.00
2018-05-02T05:38:47.747Z,2300.00
2018-05-02T05:39:47.623Z,2248.00
2018-05-02T05:40:47.527Z,2236.00
2018-05-02T05:41:47.439Z,2232.00
2018-05-02T05:42:47.341Z,2252.00
2018-05-02T05:43:47.279Z,2304.00
2018-05-02T05:44:47.150Z,2444.00
2018-05-02T05:45:47.061Z,2608.00
2018-05-02T05:46:47.018Z,2780.00
2018-05-02T05:47:46.870Z,2948.00
2018-05-02T05:48:46.804Z,3108.00
2018-05-02T05:49:46.685Z,3208.00
2018-05-02T05:50:46.586Z,3292.00
2018-05-02T05:51:46.495Z,3472.00
2018-05-02T05:52:46.400Z,3924.00
2018-05-02T05:53:46.346Z,4644.00
2018-05-02T05:54:46.213Z,5444.00
2018-05-02T05:55:46.118Z,5816.00
2018-05-02T05:56:46.022Z,5708.00
2018-05-02T05:57:45.931Z,5508.00
2018-05-02T05:58:45.838Z,5588.00
2018-05-02T05:59:45.773Z,5832.00
2018-05-02T06:00:45.693Z,6088.00
2018-05-02T06:01:45.555Z,6260.00
2018-05-02T06:02:45.461Z,6460.00
2018-05-02T06:03:45.374Z,6852.00
2018-05-02T06:04:45.305Z,7508.00
2018-05-02T06:05:45.179Z,8348.00
2018-05-02T06:06:45.115Z,9300.00
2018-05-02T06:07:44.992Z,10152.00
2018-05-02T06:08:44.981Z,10960.00
2018-05-02T06:09:44.836Z,11632.00
2018-05-02T06:10:44.711Z,12044.00
2018-05-02T06:11:44.619Z,12268.00
2018-05-02T06:12:44.525Z,12448.00
2018-05-02T06:13:44.430Z,12604.00
2018-05-02T06:14:44.368Z,12744.00
2018-05-02T06:15:44.245Z,13012.00
2018-05-02T06:16:44.150Z,13492.00
2018-05-02T06:17:44.158Z,14056.00
2018-05-02T06:18:44.025Z,14636.00
2018-05-02T06:19:43.903Z,15200.00
2018-05-02T06:20:43.777Z,15420.00
2018-05-02T06:21:43.687Z,15668.00
2018-05-02T06:22:43.592Z,16028.00
2018-05-02T06:23:43.497Z,16768.00
2018-05-02T06:24:43.533Z,17568.00
2018-05-02T06:25:43.312Z,18688.00
2018-05-02T06:26:43.218Z,19872.00
2018-05-02T06:27:43.127Z,19872.00
2018-05-02T06:28:43.033Z,18656.00
2018-05-02T06:29:42.973Z,16132.00
2018-05-02T06:30:42.850Z,13600.00
2018-05-02T06:31:42.933Z,11568.00
2018-05-02T06:32:42.662Z,9884.00
2018-05-02T06:33:42.568Z,8456.00
2018-05-02T06:34:42.506Z,7512.00
2018-05-02T06:35:42.383Z,6824.00
2018-05-02T06:36:42.291Z,5920.00
2018-05-02T06:37:42.253Z,5564.00
2018-05-02T06:38:42.206Z,6260.00
2018-05-02T06:39:42.048Z,8544.00
2018-05-02T06:40:41.922Z,9476.00
2018-05-02T06:41:41.831Z,9348.00
2018-05-02T06:42:41.737Z,9140.00
2018-05-02T06:43:41.643Z,8740.00
2018-05-02T06:44:41.580Z,7916.00
2018-05-02T06:45:41.553Z,7160.00
2018-05-02T06:46:41.371Z,6172.00
2018-05-02T06:47:41.279Z,5944.00
2018-05-02T06:48:41.185Z,6544.00
2018-05-02T06:49:41.119Z,7500.00
2018-05-02T06:50:40.996Z,7796.00
2018-05-02T06:51:40.905Z,7336.00
2018-05-02T06:52:40.909Z,7036.00
2018-05-02T06:53:40.721Z,7124.00
2018-05-02T06:54:40.736Z,6568.00
2018-05-02T06:55:40.534Z,6372.00
2018-05-02T06:56:40.439Z,5876.00
2018-05-02T06:57:40.351Z,4860.00
2018-05-02T06:58:40.257Z,4624.00
2018-05-02T06:59:40.288Z,5184.00
2018-05-02T07:00:40.070Z,6392.00
2018-05-02T07:01:39.980Z,7392.00
2018-05-02T07:02:39.884Z,8148.00
2018-05-02T07:03:39.794Z,8984.00
2018-05-02T07:04:39.731Z,9860.00
2018-05-02T07:05:39.608Z,11120.00
2018-05-02T07:06:39.610Z,12832.00
2018-05-02T07:07:39.423Z,14348.00
2018-05-02T07:08:39.331Z,15052.00
2018-05-02T07:09:39.240Z,13948.00
2018-05-02T07:10:39.173Z,13564.00
2018-05-02T07:11:39.050Z,12448.00
2018-05-02T07:12:38.958Z,11108.00
2018-05-02T07:13:39.069Z,10644.00
2018-05-02T07:14:38.772Z,10264.00
2018-05-02T07:15:38.713Z,9132.00
2018-05-02T07:16:38.588Z,8428.00
2018-05-02T07:17:38.497Z,8120.00
2018-05-02T07:18:38.401Z,8000.00
2018-05-02T07:19:38.313Z,7788.00
2018-05-02T07:20:38.259Z,7656.00
2018-05-02T07:21:38.127Z,7060.00
2018-05-02T07:22:38.033Z,6916.00
2018-05-02T07:23:37.940Z,7072.00
2018-05-02T07:24:37.868Z,6844.00
2018-05-02T07:25:37.791Z,6676.00
2018-05-02T07:26:37.665Z,6616.00
2018-05-02T07:27:37.574Z,6820.00
2018-05-02T07:28:37.484Z,7812.00
2018-05-02T07:29:37.390Z,10348.00
2018-05-02T07:30:37.325Z,13132.00
2018-05-02T07:31:37.207Z,14164.00
2018-05-02T07:32:37.273Z,13348.00
2018-05-02T07:33:37.028Z,11300.00
2018-05-02T07:34:36.947Z,10036.00
2018-05-02T07:35:36.869Z,9708.00
2018-05-02T07:36:36.747Z,9284.00
2018-05-02T07:37:36.654Z,9420.00
2018-05-02T07:38:36.563Z,9576.00
2018-05-02T07:39:36.473Z,9036.00
2018-05-02T07:40:36.412Z,8320.00
2018-05-02T07:41:36.292Z,7924.00
2018-05-02T07:42:36.199Z,7856.00
2018-05-02T07:43:36.108Z,8328.00
2018-05-02T07:44:36.016Z,9264.00
2018-05-02T07:45:35.954Z,9436.00
2018-05-02T07:46:35.834Z,9472.00
2018-05-02T07:47:35.743Z,10236.00
2018-05-02T07:48:35.706Z,11516.00
2018-05-02T07:49:35.560Z,12156.00
2018-05-02T07:50:35.499Z,10912.00
2018-05-02T07:51:35.381Z,9932.00
2018-05-02T07:52:35.287Z,9996.00
2018-05-02T07:53:35.199Z,10916.00
2018-05-02T07:54:35.104Z,11952.00
2018-05-02T07:55:35.045Z,11492.00
2018-05-02T07:56:35.015Z,10984.00
2018-05-02T07:57:34.833Z,11152.00
2018-05-02T07:58:34.742Z,10868.00
2018-05-02T07:59:34.653Z,10540.00
2018-05-02T08:00:34.592Z,10024.00
2018-05-02T08:01:34.470Z,9728.00
2018-05-02T08:02:34.381Z,9720.00
2018-05-02T08:03:34.292Z,9608.00
2018-05-02T08:04:34.198Z,9568.00
2018-05-02T08:05:34.141Z,9648.00
2018-05-02T08:06:34.014Z,9604.00
2018-05-02T08:07:33.923Z,9896.00
2018-05-02T08:08:33.840Z,10904.00
2018-05-02T08:09:33.746Z,11872.00
2018-05-02T08:10:33.685Z,11996.00
2018-05-02T08:11:33.563Z,12052.00
2018-05-02T08:12:33.473Z,12472.00
2018-05-02T08:13:33.384Z,13444.00
2018-05-02T08:14:33.340Z,14256.00
2018-05-02T08:15:33.345Z,14404.00
2018-05-02T08:16:33.147Z,14404.00
2018-05-02T08:17:33.024Z,14492.00
2018-05-02T08:18:32.931Z,14700.00
2018-05-02T08:19:32.842Z,14524.00
2018-05-02T08:20:32.782Z,13956.00
2018-05-02T08:21:32.673Z,13496.00
2018-05-02T08:22:32.665Z,13368.00
2018-05-02T08:23:32.480Z,13408.00
2018-05-02T08:24:32.392Z,13304.00
2018-05-02T08:25:32.306Z,12888.00
2018-05-02T08:26:32.244Z,12432.00
2018-05-02T08:27:32.124Z,12004.00
2018-05-02T08:28:32.035Z,11640.00
2018-05-02T08:29:32.037Z,11508.00
2018-05-02T08:30:31.854Z,11648.00
2018-05-02T08:31:31.797Z,11856.00
2018-05-02T08:32:31.674Z,11924.00
2018-05-02T08:33:31.589Z,12012.00
2018-05-02T08:34:31.496Z,12344.00
2018-05-02T08:35:31.407Z,12428.00
2018-05-02T08:36:31.459Z,12304.00
2018-05-02T08:37:31.224Z,12456.00
2018-05-02T08:38:31.137Z,13196.00
2018-05-02T08:39:31.049Z,13864.00
2018-05-02T08:40:30.957Z,14136.00
2018-05-02T08:41:30.901Z,14236.00
2018-05-02T08:42:30.778Z,14364.00
2018-05-02T08:43:30.787Z,15044.00
2018-05-02T08:44:30.600Z,15624.00
2018-05-02T08:45:30.513Z,15688.00
2018-05-02T08:46:30.451Z,16192.00
2018-05-02T08:47:30.350Z,17600.00
2018-05-02T08:48:30.243Z,18656.00
2018-05-02T08:49:30.153Z,19168.00
2018-05-02T08:50:30.161Z,20384.00
2018-05-02T08:51:30.009Z,21952.00
2018-05-02T08:52:29.888Z,24320.00
2018-05-02T08:53:29.802Z,26400.00
2018-05-02T08:54:29.707Z,28192.00
2018-05-02T08:55:29.617Z,29536.00
2018-05-02T08:56:29.560Z,30368.00
2018-05-02T08:57:29.599Z,27808.00
2018-05-02T08:58:29.353Z,28864.00
2018-05-02T08:59:29.265Z,26272.00
2018-05-02T09:00:29.177Z,26144.00
2018-05-02T09:01:29.122Z,27456.00
2018-05-02T09:02:28.999Z,23104.00
2018-05-02T09:03:28.913Z,22304.00
2018-05-02T09:04:28.922Z,21376.00
2018-05-02T09:05:28.735Z,21056.00
2018-05-02T09:06:28.681Z,20800.00
2018-05-02T09:07:28.559Z,20320.00
2018-05-02T09:08:28.472Z,19520.00
2018-05-02T09:09:28.384Z,19264.00
2018-05-02T09:10:28.300Z,19264.00
2018-05-02T09:11:28.239Z,19712.00
2018-05-02T09:12:28.125Z,20576.00
2018-05-02T09:13:28.034Z,21664.00
2018-05-02T09:14:27.948Z,21888.00
2018-05-02T09:15:27.873Z,22240.00
2018-05-02T09:16:27.810Z,24640.00
2018-05-02T09:17:27.685Z,26080.00
2018-05-02T09:18:27.601Z,26976.00
2018-05-02T09:19:27.510Z,31808.00
2018-05-02T09:20:27.422Z,38048.00
2018-05-02T09:21:27.369Z,38016.00
2018-05-02T09:22:27.251Z,43168.00
2018-05-02T09:23:27.164Z,63392.00
2018-05-02T09:24:27.075Z,65952.00
2018-05-02T09:25:26.991Z,54208.00
2018-05-02T09:26:26.932Z,53312.00
2018-05-02T09:27:26.814Z,42144.00
2018-05-02T09:28:26.729Z,38272.00
2018-05-02T09:29:26.641Z,70976.00
2018-05-02T09:30:26.556Z,70976.00
2018-05-02T09:31:26.501Z,55328.00
2018-05-02T09:32:26.381Z,52512.00
2018-05-02T09:33:26.296Z,55776.00
2018-05-02T09:34:26.210Z,67168.00
2018-05-02T09:35:26.128Z,44448.00
2018-05-02T09:36:26.099Z,51136.00
2018-05-02T09:37:25.955Z,53984.00
2018-05-02T09:38:25.866Z,60096.00
2018-05-02T09:39:25.780Z,45312.00
2018-05-02T09:40:25.695Z,46624.00
2018-05-02T09:41:25.612Z,44224.00
2018-05-02T09:42:25.555Z,30144.00
2018-05-02T09:43:25.438Z,25696.00
2018-05-02T09:44:25.355Z,40032.00
2018-05-02T09:45:25.268Z,69280.00
2018-05-02T09:46:25.185Z,81024.00
2018-05-02T09:47:25.128Z,77376.00
2018-05-02T09:48:25.021Z,75712.00
2018-05-02T09:49:24.951Z,73760.00
2018-05-02T09:50:24.842Z,62336.00
2018-05-02T09:51:24.757Z,42944.00
2018-05-02T09:52:24.714Z,55808.00
2018-05-02T09:53:24.588Z,76768.00
2018-05-02T09:54:24.502Z,60896.00
2018-05-02T09:55:24.420Z,57056.00
2018-05-02T09:56:24.335Z,70272.00
2018-05-02T09:57:24.284Z,78752.00
2018-05-02T09:58:24.164Z,85824.00
2018-05-02T09:59:24.080Z,83968.00
2018-05-02T10:00:24.002Z,63456.00
2018-05-02T10:01:23.913Z,62944.00
2018-05-02T10:02:23.925Z,71360.00
2018-05-02T10:03:23.761Z,60448.00
2018-05-02T10:04:23.695Z,60704.00
2018-05-02T10:05:23.579Z,72800.00
2018-05-02T10:06:23.493Z,88352.00
2018-05-02T10:07:23.631Z,73664.00
2018-05-02T10:08:23.326Z,73344.00
2018-05-02T10:09:23.239Z,76416.00
2018-05-02T10:10:23.159Z,77728.00
2018-05-02T10:11:23.077Z,83200.00
2018-05-02T10:12:23.061Z,74176.00
2018-05-02T10:13:22.908Z,63360.00
2018-05-02T10:14:22.828Z,65696.00
2018-05-02T10:15:22.741Z,66560.00
2018-05-02T10:16:22.659Z,67136.00
2018-05-02T10:17:22.607Z,66400.00
2018-05-02T10:18:22.503Z,69664.00
2018-05-02T10:19:22.411Z,69632.00
2018-05-02T10:20:22.327Z,67744.00
2018-05-02T10:21:22.246Z,68064.00
2018-05-02T10:22:22.193Z,70912.00
2018-05-02T10:23:22.080Z,62016.00
2018-05-02T10:24:22.005Z,59040.00
2018-05-02T10:25:21.916Z,67584.00
2018-05-02T10:26:21.873Z,70144.00
2018-05-02T10:27:21.784Z,73184.00
2018-05-02T10:28:21.764Z,72512.00
2018-05-02T10:29:21.591Z,74624.00
2018-05-02T10:30:21.507Z,77728.00
2018-05-02T10:31:21.431Z,79712.00
2018-05-02T10:32:21.380Z,79136.00
2018-05-02T10:33:21.265Z,82752.00
2018-05-02T10:34:21.183Z,82688.00
2018-05-02T10:35:21.192Z,78848.00
2018-05-02T10:36:21.018Z,75584.00
2018-05-02T10:37:20.969Z,71360.00
2018-05-02T10:38:20.858Z,73152.00
2018-05-02T10:39:20.776Z,74976.00
2018-05-02T10:40:20.690Z,75968.00
2018-05-02T10:41:20.615Z,80384.00
2018-05-02T10:42:20.565Z,74112.00
2018-05-02T10:43:20.452Z,75008.00
2018-05-02T10:44:20.367Z,80608.00
2018-05-02T10:45:20.287Z,84768.00
2018-05-02T10:46:20.206Z,80640.00
2018-05-02T10:47:20.153Z,79744.00
2018-05-02T10:48:20.044Z,76928.00
2018-05-02T10:49:20.073Z,82688.00
2018-05-02T10:50:19.928Z,70816.00
2018-05-02T10:51:19.802Z,74976.00
2018-05-02T10:52:19.748Z,68192.00
2018-05-02T10:53:19.640Z,68736.00
2018-05-02T10:54:19.555Z,78048.00
2018-05-02T10:55:19.474Z,77952.00
2018-05-02T10:56:19.485Z,80320.00
2018-05-02T10:57:19.315Z,77664.00
2018-05-02T10:58:19.265Z,80448.00
2018-05-02T10:59:19.152Z,84512.00
2018-05-02T11:00:19.092Z,83808.00
2018-05-02T11:01:18.991Z,76864.00
2018-05-02T11:02:18.914Z,74688.00
2018-05-02T11:03:18.954Z,48768.00
2018-05-02T11:04:18.748Z,50592.00
2018-05-02T11:05:18.667Z,77728.00
2018-05-02T11:06:18.588Z,66496.00
2018-05-02T11:07:18.509Z,57472.00
2018-05-02T11:08:18.514Z,41024.00
2018-05-02T11:09:18.441Z,41152.00
2018-05-02T11:10:18.265Z,52352.00
2018-05-02T11:11:18.185Z,56576.00
2018-05-02T11:12:18.118Z,72224.00
2018-05-02T11:13:18.060Z,94336.00
2018-05-02T11:14:17.946Z,91040.00
2018-05-02T11:15:17.866Z,87104.00
2018-05-02T11:16:17.786Z,91264.00
2018-05-02T11:17:17.704Z,95328.00
2018-05-02T11:18:17.655Z,65984.00
2018-05-02T11:19:17.544Z,77760.00
2018-05-02T11:20:17.465Z,59200.00
2018-05-02T11:21:17.386Z,47744.00
2018-05-02T11:22:17.308Z,60352.00
2018-05-02T11:23:17.257Z,44448.00
2018-05-02T11:24:17.142Z,51936.00
2018-05-02T11:25:17.064Z,55072.00
2018-05-02T11:26:16.984Z,45632.00
2018-05-02T11:27:16.904Z,53024.00
2018-05-02T11:28:16.928Z,65056.00
2018-05-02T11:29:16.741Z,65984.00
2018-05-02T11:30:16.661Z,57248.00
2018-05-02T11:31:16.581Z,59200.00
2018-05-02T11:32:16.499Z,44544.00
2018-05-02T11:33:16.451Z,34272.00
2018-05-02T11:34:16.338Z,30912.00
2018-05-02T11:35:16.259Z,31264.00
2018-05-02T11:36:16.175Z,33408.00
2018-05-02T11:37:16.098Z,33120.00
2018-05-02T11:38:16.062Z,28864.00
2018-05-02T11:39:15.930Z,26048.00
2018-05-02T11:40:15.848Z,25824.00
2018-05-02T11:41:15.767Z,28672.00
2018-05-02T11:42:15.685Z,40256.00
2018-05-02T11:43:15.635Z,102144.00
2018-05-02T11:44:15.589Z,70688.00
2018-05-02T11:45:15.439Z,58240.00
2018-05-02T11:46:15.444Z,40832.00
2018-05-02T11:47:15.276Z,42272.00
2018-05-02T11:48:15.190Z,48544.00
2018-05-02T11:49:15.138Z,44640.00
2018-05-02T11:50:15.025Z,40960.00
2018-05-02T11:51:14.943Z,39904.00
2018-05-02T11:52:14.864Z,60256.00
2018-05-02T11:53:14.780Z,58400.00
2018-05-02T11:54:14.732Z,40864.00
2018-05-02T11:55:14.617Z,54880.00
2018-05-02T11:56:14.543Z,22336.00
2018-05-02T11:57:14.454Z,20224.00
2018-05-02T11:58:14.387Z,19840.00
2018-05-02T11:59:14.319Z,21056.00
2018-05-02T12:00:14.208Z,21984.00
2018-05-02T12:01:14.124Z,24576.00
2018-05-02T12:02:14.042Z,26720.00
2018-05-02T12:03:14.550Z,31264.00
2018-05-02T12:04:13.909Z,34048.00
2018-05-02T12:05:13.891Z,35264.00
2018-05-02T12:06:13.713Z,31584.00
2018-05-02T12:07:13.630Z,27232.00
2018-05-02T12:08:13.550Z,27584.00
2018-05-02T12:09:13.499Z,33056.00
2018-05-02T12:10:13.397Z,37216.00
2018-05-02T12:11:13.300Z,38144.00
2018-05-02T12:12:13.220Z,27360.00
2018-05-02T12:13:13.139Z,24064.00
2018-05-02T12:14:13.084Z,24896.00
2018-05-02T12:15:12.971Z,27616.00
2018-05-02T12:16:12.890Z,28224.00
2018-05-02T12:17:12.805Z,20128.00